Time;durP1;ratioP1;P1;durP2;ratioP2;P2;SDS_P1;SDS_P2;PMS_P1;PMS_P2;Temp;Humidity;BMP_temperature;BMP_pressure;BME280_temperature;BME280_humidity;BME280_pressure;Samples;Min_cycle;Max_cycle;Signal;HPM_P1;HPM_P2
2023/10/01 00:00:00;;;;;;;8.18;5.32;;;;;21.90;101337.00;;;;2538994;23;20190;-60
2023/10/01 00:01:01;;;;;;;6.60;5.40;;;;;21.90;101335.00;;;;2539759;23;20194;-59
2023/10/01 00:02:03;;;;;;;6.78;5.78;;;;;22.00;101338.00;;;;2526645;23;20210;-59
2023/10/01 00:03:05;;;;;;;7.05;5.88;;;;;21.90;101324.00;;;;2541372;23;20256;-59
2023/10/01 00:04:06;;;;;;;6.57;5.85;;;;;22.00;101330.00;;;;2539006;23;20218;-58
2023/10/01 00:05:07;;;;;;;6.53;5.85;;;;;21.90;101331.00;;;;2540155;23;20203;-60
2023/10/01 00:06:08;;;;;;;8.73;5.57;;;;;21.90;101332.00;;;;2527658;23;20200;-59
2023/10/01 00:07:09;;;;;;;6.23;5.53;;;;;21.90;101338.00;;;;2525636;23;20197;-58
2023/10/01 00:08:13;;;;;;;6.25;5.63;;;;;21.90;101334.00;;;;2539493;23;20190;-59
2023/10/01 00:09:19;;;;;;;6.30;5.47;;;;;21.90;101335.00;;;;2540049;23;20249;-59
2023/10/01 00:10:20;;;;;;;6.90;5.90;;;;;22.00;101320.00;;;;2539029;23;20191;-58
2023/10/01 00:11:20;;;;;;;5.73;5.13;;;;;22.00;101327.00;;;;2539673;23;20196;-59
2023/10/01 00:12:22;;;;;;;6.07;5.47;;;;;21.90;101325.00;;;;2513434;23;20423;-59
2023/10/01 00:13:22;;;;;;;6.30;5.70;;;;;21.90;101327.00;;;;2539624;23;20535;-59
2023/10/01 00:14:23;;;;;;;6.43;5.70;;;;;21.90;101330.00;;;;2540597;23;20210;-62
2023/10/01 00:15:25;;;;;;;7.53;5.55;;;;;21.90;101326.00;;;;2540534;23;20209;-59
2023/10/01 00:16:26;;;;;;;7.63;5.22;;;;;21.90;101315.00;;;;2527511;23;20234;-59
2023/10/01 00:17:26;;;;;;;5.93;4.87;;;;;22.00;101338.00;;;;2512806;23;20321;-58
2023/10/01 00:18:26;;;;;;;6.10;5.30;;;;;22.00;101334.00;;;;2540041;23;20429;-59
2023/10/01 00:19:27;;;;;;;7.40;5.97;;;;;21.90;101333.00;;;;2539201;23;20198;-58
2023/10/01 00:20:28;;;;;;;5.93;5.35;;;;;21.90;101336.00;;;;2526117;23;20226;-59
2023/10/01 00:21:28;;;;;;;6.97;5.47;;;;;21.90;101326.00;;;;2540534;23;20213;-59
2023/10/01 00:22:33;;;;;;;6.30;5.23;;;;;21.90;101326.00;;;;2537088;23;20194;-60
2023/10/01 00:23:33;;;;;;;11.90;5.38;;;;;21.90;101326.00;;;;2552095;23;20297;-60
2023/10/01 00:24:34;;;;;;;6.10;5.23;;;;;21.90;101332.00;;;;2539934;23;21004;-60
2023/10/01 00:25:38;;;;;;;5.67;4.93;;;;;21.90;101335.00;;;;2540473;23;20201;-60
2023/10/01 00:26:38;;;;;;;5.70;5.10;;;;;21.90;101331.00;;;;2527510;23;20577;-60
2023/10/01 00:27:39;;;;;;;5.67;5.07;;;;;21.90;101325.00;;;;2551695;23;20333;-59
2023/10/01 00:28:39;;;;;;;5.63;5.07;;;;;21.90;101329.00;;;;2539983;23;20285;-60
2023/10/01 00:29:39;;;;;;;5.50;5.00;;;;;22.00;101325.00;;;;2539248;23;20272;-60
2023/10/01 00:30:41;;;;;;;6.93;5.67;;;;;21.90;101333.00;;;;2538787;23;20222;-60
2023/10/01 00:31:41;;;;;;;5.47;4.47;;;;;21.90;101327.00;;;;2525308;23;20744;-60
2023/10/01 00:32:41;;;;;;;6.40;5.30;;;;;21.90;101274.00;;;;2540405;23;20194;-60
2023/10/01 00:33:42;;;;;;;6.07;4.83;;;;;21.90;101321.00;;;;2540327;23;20198;-60
2023/10/01 00:34:42;;;;;;;6.13;5.50;;;;;21.90;101332.00;;;;2539659;23;20232;-60
2023/10/01 00:35:43;;;;;;;5.20;4.57;;;;;21.90;101341.00;;;;2540982;23;20198;-60
2023/10/01 00:36:44;;;;;;;5.53;5.00;;;;;21.90;101338.00;;;;2526746;23;20194;-60
2023/10/01 00:37:44;;;;;;;5.00;4.50;;;;;21.90;101337.00;;;;2540918;23;20216;-60
2023/10/01 00:38:45;;;;;;;5.57;5.03;;;;;21.90;101330.00;;;;2539262;23;20293;-60
2023/10/01 00:39:45;;;;;;;5.30;4.80;;;;;21.90;101331.00;;;;2540157;23;20198;-60
2023/10/01 00:40:45;;;;;;;5.87;4.90;;;;;21.90;101340.00;;;;2539441;23;20272;-60
2023/10/01 00:41:46;;;;;;;5.23;4.80;;;;;21.90;101333.00;;;;2526523;23;20194;-60
2023/10/01 00:42:47;;;;;;;5.27;4.60;;;;;21.90;101323.00;;;;2540397;23;20205;-58
2023/10/01 00:43:47;;;;;;;6.17;5.20;;;;;21.90;101330.00;;;;2539564;23;21064;-58
2023/10/01 00:44:47;;;;;;;8.13;4.70;;;;;21.90;101338.00;;;;2541080;23;20194;-59
2023/10/01 00:45:48;;;;;;;4.57;3.93;;;;;21.90;101331.00;;;;2540637;23;20194;-60
2023/10/01 00:46:48;;;;;;;6.03;5.43;;;;;21.90;101333.00;;;;2526873;23;20194;-59
2023/10/01 00:47:48;;;;;;;6.40;5.30;;;;;21.90;101327.00;;;;2540896;23;20288;-59
2023/10/01 00:48:49;;;;;;;5.17;4.67;;;;;21.90;101319.00;;;;2526996;23;20257;-60
2023/10/01 00:49:49;;;;;;;4.73;4.23;;;;;21.90;101322.00;;;;2527890;23;20637;-59
2023/10/01 00:50:52;;;;;;;4.97;4.47;;;;;21.90;101324.00;;;;2539461;23;20216;-59
2023/10/01 00:51:52;;;;;;;6.47;5.00;;;;;21.90;101317.00;;;;2513401;23;20226;-60
2023/10/01 00:52:53;;;;;;;5.17;4.67;;;;;21.90;101293.00;;;;2515396;23;21022;-60
2023/10/01 00:53:57;;;;;;;7.53;4.60;;;;;21.90;101327.00;;;;2527644;23;20686;-64
2023/10/01 00:54:57;;;;;;;5.00;4.55;;;;;21.90;101322.00;;;;2540760;23;20925;-59
2023/10/01 00:55:59;;;;;;;5.03;4.37;;;;;21.90;101313.00;;;;2552156;23;20201;-59
2023/10/01 00:56:59;;;;;;;6.30;4.65;;;;;21.90;101323.00;;;;2525822;23;20205;-60
2023/10/01 00:57:59;;;;;;;5.40;4.90;;;;;21.40;101351.00;;;;2539451;23;20249;-60
2023/10/01 00:59:00;;;;;;;7.23;4.70;;;;;21.90;101326.00;;;;2541905;23;20222;-58
2023/10/01 01:00:00;;;;;;;4.80;4.40;;;;;21.80;101300.00;;;;2540575;23;20202;-60
2023/10/01 01:01:03;;;;;;;7.47;4.80;;;;;22.00;101317.00;;;;2528396;23;20314;-60
2023/10/01 01:02:06;;;;;;;5.85;4.65;;;;;22.00;101272.00;;;;2502489;23;20203;-59
2023/10/01 01:03:08;;;;;;;5.53;4.60;;;;;22.00;101312.00;;;;2528817;23;20191;-60
2023/10/01 01:04:10;;;;;;;4.72;4.30;;;;;22.00;101320.00;;;;2528330;23;20713;-60
2023/10/01 01:05:23;;;;;;;8.45;4.55;;;;;22.00;101266.00;;;;2528156;23;20728;-59
2023/10/01 01:06:24;;;;;;;8.07;4.50;;;;;21.90;101319.00;;;;2527254;23;20692;-62
2023/10/01 01:07:24;;;;;;;4.73;4.10;;;;;22.00;101321.00;;;;2515150;23;20211;-61
2023/10/01 01:08:33;;;;;;;5.20;4.10;;;;;21.90;101317.00;;;;2539654;23;20205;-60
2023/10/01 01:09:36;;;;;;;6.60;4.95;;;;;21.90;101302.00;;;;2539482;23;20256;-60
2023/10/01 01:10:40;;;;;;;5.07;4.25;;;;;21.90;101326.00;;;;2520796;23;20202;-60
2023/10/01 01:11:40;;;;;;;5.75;4.47;;;;;21.90;101310.00;;;;2520518;23;20217;-59
2023/10/01 01:12:41;;;;;;;5.77;4.23;;;;;21.90;101309.00;;;;2540857;23;20198;-60
2023/10/01 01:13:43;;;;;;;5.93;4.50;;;;;21.90;101317.00;;;;2539946;23;20206;-60
2023/10/01 01:14:47;;;;;;;7.57;4.40;;;;;21.90;101306.00;;;;2527904;23;20202;-60
2023/10/01 01:15:49;;;;;;;5.50;3.95;;;;;21.90;101319.00;;;;2527145;23;20273;-59
2023/10/01 01:16:49;;;;;;;5.05;4.55;;;;;21.90;101320.00;;;;2502882;23;20195;-60
2023/10/01 01:17:53;;;;;;;5.30;4.50;;;;;21.90;101311.00;;;;2528115;23;20692;-60
2023/10/01 01:18:54;;;;;;;6.07;4.88;;;;;21.90;101307.00;;;;2539287;23;20638;-60
2023/10/01 01:19:55;;;;;;;8.37;4.33;;;;;21.90;101311.00;;;;2538700;23;20202;-60
2023/10/01 01:20:58;;;;;;;4.90;4.07;;;;;21.90;101324.00;;;;2539050;23;20429;-60
2023/10/01 01:21:58;;;;;;;5.10;4.45;;;;;21.90;101327.00;;;;2524540;23;20430;-60
2023/10/01 01:22:58;;;;;;;4.93;4.13;;;;;21.90;101339.00;;;;2540458;23;20201;-60
2023/10/01 01:23:59;;;;;;;5.00;4.47;;;;;21.90;101325.00;;;;2540452;23;20214;-60
2023/10/01 01:25:10;;;;;;;5.10;4.40;;;;;21.90;101310.00;;;;2540409;23;20190;-61
2023/10/01 01:26:11;;;;;;;6.05;4.15;;;;;21.90;101309.00;;;;2540216;23;20434;-60
2023/10/01 01:27:11;;;;;;;4.40;4.00;;;;;21.90;101316.00;;;;2525854;23;20645;-59
2023/10/01 01:28:24;;;;;;;6.38;4.65;;;;;21.90;101315.00;;;;2539073;23;20206;-60
2023/10/01 01:29:33;;;;;;;5.45;4.40;;;;;21.90;101311.00;;;;2537346;23;21059;-59
2023/10/01 01:30:41;;;;;;;5.18;4.20;;;;;21.90;101311.00;;;;2538634;23;20244;-59
2023/10/01 01:31:45;;;;;;;5.32;4.10;;;;;21.90;101312.00;;;;2527706;23;20543;-60
2023/10/01 01:32:53;;;;;;;4.97;4.20;;;;;21.90;101300.00;;;;2536318;23;20207;-59
2023/10/01 01:33:55;;;;;;;4.47;4.00;;;;;21.90;101305.00;;;;2526144;23;20190;-60
2023/10/01 01:34:56;;;;;;;4.93;4.00;;;;;21.90;101304.00;;;;2539823;23;20194;-60
2023/10/01 01:35:57;;;;;;;5.00;4.50;;;;;21.90;101300.00;;;;2539176;23;20203;-62
2023/10/01 01:36:58;;;;;;;5.50;4.05;;;;;21.90;101308.00;;;;2510874;23;20203;-60
2023/10/01 01:38:01;;;;;;;7.10;4.07;;;;;21.90;101303.00;;;;2537391;23;20198;-59
2023/10/01 01:39:26;;;;;;;5.35;3.92;;;;;21.80;101303.00;;;;2527515;23;20195;-60
2023/10/01 01:40:31;;;;;;;5.50;4.05;;;;;21.80;101298.00;;;;2530671;23;20252;-67
2023/10/01 01:41:32;;;;;;;5.50;4.10;;;;;21.90;101300.00;;;;2532916;23;20995;-62
2023/10/01 01:42:33;;;;;;;7.60;4.37;;;;;21.80;101296.00;;;;2538636;23;20261;-60
2023/10/01 01:43:38;;;;;;;5.15;4.20;;;;;21.80;101295.00;;;;2541121;23;20256;-60
2023/10/01 01:44:38;;;;;;;5.30;4.20;;;;;21.80;101299.00;;;;2536626;23;20224;-59
2023/10/01 01:45:38;;;;;;;4.13;3.73;;;;;21.80;101296.00;;;;2538963;23;20221;-60
2023/10/01 01:46:47;;;;;;;4.53;4.03;;;;;21.80;101299.00;;;;2525632;23;20198;-60
2023/10/01 01:47:48;;;;;;;6.32;3.80;;;;;21.80;101298.00;;;;2539024;23;20202;-60
2023/10/01 01:48:52;;;;;;;4.85;4.00;;;;;21.80;101293.00;;;;2527827;23;20597;-59
2023/10/01 01:50:06;;;;;;;4.95;4.00;;;;;21.80;101293.00;;;;2538467;23;20202;-60
2023/10/01 01:51:08;;;;;;;5.97;4.40;;;;;21.80;101291.00;;;;2538165;23;20533;-59
2023/10/01 01:52:09;;;;;;;4.65;3.67;;;;;21.80;101281.00;;;;2523500;23;20313;-60
2023/10/01 01:53:12;;;;;;;4.90;4.13;;;;;21.80;101289.00;;;;2540631;23;20226;-60
2023/10/01 01:54:12;;;;;;;6.32;4.40;;;;;21.80;101284.00;;;;2540285;23;20221;-60
2023/10/01 01:55:34;;;;;;;6.20;4.43;;;;;21.80;101282.00;;;;2540405;23;20593;-60
2023/10/01 01:56:40;;;;;;;4.95;3.85;;;;;21.80;101289.00;;;;2516672;23;20206;-59
2023/10/01 01:57:40;;;;;;;4.55;3.65;;;;;21.80;101288.00;;;;2539208;23;20202;-60
2023/10/01 01:58:40;;;;;;;5.57;4.00;;;;;21.80;101285.00;;;;2540791;23;20528;-60
2023/10/01 01:59:41;;;;;;;5.57;3.60;;;;;21.80;101366.00;;;;2540186;23;20635;-59
2023/10/01 02:02:01;;;;;;;6.00;3.63;;;;;21.80;101288.00;;;;2522757;23;20544;-59
2023/10/01 02:03:10;;;;;;;4.23;3.63;;;;;21.80;101281.00;;;;2534167;23;20194;-59
2023/10/01 02:04:12;;;;;;;5.43;3.65;;;;;21.80;101286.00;;;;2518552;23;20438;-60
2023/10/01 02:05:13;;;;;;;4.38;3.55;;;;;21.80;101286.00;;;;2534835;23;20237;-60
2023/10/01 02:06:14;;;;;;;4.40;3.70;;;;;21.80;101286.00;;;;2536497;23;20201;-59
2023/10/01 02:07:15;;;;;;;4.73;3.93;;;;;21.80;101287.00;;;;2522833;23;20200;-60
2023/10/01 02:08:24;;;;;;;4.90;3.87;;;;;21.80;101291.00;;;;2518566;23;20206;-59
2023/10/01 02:09:24;;;;;;;4.50;3.78;;;;;21.70;101297.00;;;;2530383;23;20210;-60
2023/10/01 02:10:25;;;;;;;5.07;3.70;;;;;21.80;101286.00;;;;2526937;23;20282;-60
2023/10/01 02:11:25;;;;;;;4.80;3.53;;;;;21.80;101298.00;;;;2535164;23;20198;-59
2023/10/01 02:12:29;;;;;;;4.00;3.60;;;;;21.80;101286.00;;;;2527199;23;20198;-60
2023/10/01 02:13:30;;;;;;;5.53;4.30;;;;;21.80;101286.00;;;;2540012;23;20213;-62
2023/10/01 02:14:31;;;;;;;4.13;3.70;;;;;21.80;101294.00;;;;2541466;23;20540;-62
2023/10/01 02:15:32;;;;;;;3.90;3.40;;;;;21.80;101279.00;;;;2540959;23;20913;-60
2023/10/01 02:17:34;;;;;;;3.93;3.47;;;;;21.80;101279.00;;;;2537433;23;20210;-59
2023/10/01 02:18:35;;;;;;;6.63;3.83;;;;;21.80;101275.00;;;;2541045;23;20209;-59
2023/10/01 02:19:36;;;;;;;4.65;3.85;;;;;21.80;101356.00;;;;2528410;23;20203;-60
2023/10/01 02:20:36;;;;;;;5.20;3.83;;;;;21.80;101280.00;;;;2537290;23;20711;-59
2023/10/01 02:21:52;;;;;;;5.80;3.50;;;;;21.80;101277.00;;;;2527479;23;20800;-59
2023/10/01 02:22:53;;;;;;;3.83;3.47;;;;;21.80;101270.00;;;;2539791;23;20193;-59
2023/10/01 02:23:54;;;;;;;5.67;4.17;;;;;21.80;101278.00;;;;2523208;23;20206;-60
2023/10/01 02:24:54;;;;;;;4.00;3.60;;;;;21.80;101279.00;;;;2539921;23;20917;-60
2023/10/01 02:25:57;;;;;;;4.53;3.87;;;;;21.80;101269.00;;;;2538156;23;20233;-59
2023/10/01 02:27:00;;;;;;;5.03;3.75;;;;;21.80;101265.00;;;;2520212;23;20719;-60
2023/10/01 02:28:11;;;;;;;4.43;3.42;;;;;21.80;101276.00;;;;2534926;23;20537;-63
2023/10/01 02:29:13;;;;;;;6.47;3.58;;;;;21.80;101280.00;;;;2541552;23;20313;-60
2023/10/01 02:30:21;;;;;;;5.22;3.72;;;;;21.80;101271.00;;;;2527898;23;20194;-60
2023/10/01 02:31:22;;;;;;;4.75;3.53;;;;;21.80;101268.00;;;;2525698;23;20210;-60
2023/10/01 02:32:23;;;;;;;3.97;3.33;;;;;21.80;101271.00;;;;2511148;23;20195;-60
2023/10/01 02:33:24;;;;;;;4.10;3.20;;;;;21.80;101271.00;;;;2527563;23;20257;-60
2023/10/01 02:34:26;;;;;;;4.22;3.25;;;;;21.80;101262.00;;;;2528032;23;20227;-60
2023/10/01 02:35:35;;;;;;;6.47;3.63;;;;;21.80;101278.00;;;;2515589;23;20195;-60
2023/10/01 02:36:36;;;;;;;4.60;3.67;;;;;21.80;101276.00;;;;2516316;23;20221;-60
2023/10/01 02:37:36;;;;;;;4.60;3.67;;;;;21.80;101275.00;;;;2540401;23;20685;-60
2023/10/01 02:38:37;;;;;;;6.50;3.60;;;;;21.80;101274.00;;;;2540365;23;20206;-60
2023/10/01 02:39:40;;;;;;;4.30;3.37;;;;;21.80;101277.00;;;;2529627;23;20199;-60
2023/10/01 02:40:40;;;;;;;3.90;3.50;;;;;21.80;101280.00;;;;2547061;23;20564;-59
2023/10/01 02:41:40;;;;;;;5.00;3.87;;;;;21.80;101287.00;;;;2538724;23;20232;-60
2023/10/01 02:42:43;;;;;;;3.37;3.07;;;;;21.80;101285.00;;;;2528680;23;20267;-60
2023/10/01 02:43:45;;;;;;;4.88;3.92;;;;;21.80;101273.00;;;;2526673;23;20589;-60
2023/10/01 02:44:46;;;;;;;4.75;3.85;;;;;21.80;101286.00;;;;2540428;23;20233;-60
2023/10/01 02:45:50;;;;;;;4.05;3.22;;;;;21.80;101280.00;;;;2540087;23;20337;-60
2023/10/01 02:46:50;;;;;;;4.30;3.35;;;;;21.80;101300.00;;;;2538807;23;20695;-60
2023/10/01 02:48:13;;;;;;;5.30;3.80;;;;;21.80;101278.00;;;;2551132;23;20208;-60
2023/10/01 02:49:12;;;;;;;4.80;3.33;;;;;21.80;101283.00;;;;2552371;23;20197;-60
2023/10/01 02:50:16;;;;;;;3.83;3.42;;;;;21.80;101274.00;;;;2544691;23;20241;-60
2023/10/01 02:51:16;;;;;;;3.92;3.30;;;;;21.80;101273.00;;;;2550193;23;20300;-59
2023/10/01 02:52:18;;;;;;;4.57;3.60;;;;;21.80;101269.00;;;;2538172;23;20185;-60
2023/10/01 02:53:20;;;;;;;4.80;3.38;;;;;21.80;101268.00;;;;2539787;23;20596;-60
2023/10/01 02:54:20;;;;;;;5.10;3.63;;;;;21.80;101262.00;;;;2528032;23;20233;-60
2023/10/01 02:55:26;;;;;;;4.00;3.30;;;;;21.80;101276.00;;;;2540129;23;20665;-60
2023/10/01 02:56:31;;;;;;;4.57;3.25;;;;;21.80;101266.00;;;;2553583;23;20205;-60
2023/10/01 02:57:33;;;;;;;3.40;3.10;;;;;21.80;101270.00;;;;2537649;23;20221;-59
2023/10/01 02:58:33;;;;;;;4.40;3.42;;;;;21.30;101366.00;;;;2548603;23;20224;-59
2023/10/01 02:59:36;;;;;;;3.60;2.70;;;;;21.80;101269.00;;;;2537974;23;21047;-60
2023/10/01 03:00:37;;;;;;;5.20;3.40;;;;;21.80;101270.00;;;;2550368;23;20201;-60
2023/10/01 03:01:39;;;;;;;4.50;3.20;;;;;21.80;101273.00;;;;2538586;23;20193;-60
2023/10/01 03:02:49;;;;;;;4.32;3.85;;;;;21.80;101269.00;;;;2535942;23;20201;-60
2023/10/01 03:03:50;;;;;;;4.00;3.40;;;;;21.80;101275.00;;;;2515493;23;20207;-60
2023/10/01 03:04:51;;;;;;;4.90;3.28;;;;;21.80;101264.00;;;;2527256;23;20542;-60
2023/10/01 03:05:53;;;;;;;4.87;3.47;;;;;21.70;101262.00;;;;2538602;23;20190;-60
2023/10/01 03:06:55;;;;;;;4.43;3.10;;;;;21.70;101269.00;;;;2530576;23;21515;-60
2023/10/01 03:07:56;;;;;;;4.53;3.13;;;;;21.70;101274.00;;;;2550075;23;20205;-60
2023/10/01 03:10:00;;;;;;;3.70;3.10;;;;;21.80;101271.00;;;;2537307;23;20213;-59
2023/10/01 03:11:03;;;;;;;5.75;3.33;;;;;21.80;101259.00;;;;2539369;23;20190;-60
2023/10/01 03:13:30;;;;;;;4.20;3.50;;;;;21.80;101272.00;;;;2544214;23;20193;-60
2023/10/01 03:14:34;;;;;;;4.30;3.55;;;;;21.70;101282.00;;;;2540174;23;20206;-60
2023/10/01 03:15:41;;;;;;;4.25;3.03;;;;;21.80;101275.00;;;;2540618;23;20201;-59
2023/10/01 03:16:45;;;;;;;3.97;3.33;;;;;21.80;101265.00;;;;2526022;23;20233;-60
2023/10/01 03:17:57;;;;;;;5.60;3.30;;;;;21.80;101265.00;;;;2541580;23;20232;-60
2023/10/01 03:19:13;;;;;;;5.60;3.25;;;;;21.70;101273.00;;;;2540529;23;20249;-60
2023/10/01 03:21:07;;;;;;;5.93;3.45;;;;;21.70;101274.00;;;;2538896;23;20197;-60
2023/10/01 03:22:15;;;;;;;5.40;3.92;;;;;21.70;101275.00;;;;2525824;23;20641;-60
2023/10/01 03:23:01;;;;;;;4.18;3.15;;;;;21.70;101273.00;;;;2541410;23;20651;-60
2023/10/01 03:24:01;;;;;;;4.32;3.80;;;;;21.70;101270.00;;;;2539865;23;20249;-60
2023/10/01 03:25:11;;;;;;;5.27;3.40;;;;;21.70;101274.00;;;;2540630;23;20194;-60
2023/10/01 03:26:11;;;;;;;4.10;3.00;;;;;21.80;101269.00;;;;2539136;23;20306;-60
2023/10/01 03:27:25;;;;;;;3.90;3.17;;;;;21.70;101274.00;;;;2527266;23;20197;-60
2023/10/01 03:28:28;;;;;;;3.30;2.90;;;;;21.80;101262.00;;;;2540477;23;20221;-60
2023/10/01 03:29:34;;;;;;;4.38;3.40;;;;;21.80;101286.00;;;;2527723;23;20209;-60
2023/10/01 03:30:35;;;;;;;3.83;3.38;;;;;21.70;101284.00;;;;2525872;23;20289;-60
2023/10/01 03:31:37;;;;;;;3.77;3.13;;;;;21.30;101285.00;;;;2526991;23;20198;-60
2023/10/01 03:32:40;;;;;;;4.38;3.30;;;;;21.70;101283.00;;;;2541477;23;20194;-60
2023/10/01 03:33:40;;;;;;;5.13;2.88;;;;;21.70;101275.00;;;;2539983;23;20209;-60
2023/10/01 03:34:43;;;;;;;3.90;3.40;;;;;21.70;101280.00;;;;2541538;23;20228;-60
2023/10/01 03:35:47;;;;;;;3.97;3.00;;;;;21.70;101274.00;;;;2540473;23;20226;-60
2023/10/01 03:36:52;;;;;;;5.03;3.67;;;;;21.70;101291.00;;;;2513946;23;20230;-60
2023/10/01 03:38:09;;;;;;;3.28;2.97;;;;;21.70;101278.00;;;;2529233;23;20672;-61
2023/10/01 03:39:25;;;;;;;4.38;3.10;;;;;21.70;101280.00;;;;2540427;23;20204;-61
2023/10/01 03:40:27;;;;;;;4.55;3.38;;;;;21.70;101279.00;;;;2539532;23;20263;-60
2023/10/01 03:41:52;;;;;;;4.53;3.30;;;;;21.70;101281.00;;;;2541179;23;20269;-60
2023/10/01 03:42:51;;;;;;;4.43;3.60;;;;;21.70;101277.00;;;;2547341;23;20784;-60
2023/10/01 03:43:55;;;;;;;6.55;3.30;;;;;21.70;101274.00;;;;2549003;23;20656;-60
2023/10/01 03:47:14;;;;;;;5.05;3.50;;;;;21.70;101280.00;;;;2538116;23;20193;-60
2023/10/01 03:48:19;;;;;;;5.57;2.80;;;;;21.70;101276.00;;;;2549587;23;21102;-60
2023/10/01 03:49:40;;;;;;;5.40;3.40;;;;;21.70;101282.00;;;;2552703;23;20432;-61
2023/10/01 03:50:45;;;;;;;3.50;3.17;;;;;21.70;101277.00;;;;2539669;23;20202;-61
2023/10/01 03:52:00;;;;;;;5.50;2.97;;;;;21.70;101284.00;;;;2525568;23;20202;-60
2023/10/01 03:53:10;;;;;;;6.15;3.30;;;;;21.70;101279.00;;;;2533258;23;20551;-60
2023/10/01 03:54:14;;;;;;;5.40;3.33;;;;;21.70;101293.00;;;;2520605;23;20211;-60
2023/10/01 03:55:30;;;;;;;3.65;3.00;;;;;21.70;101285.00;;;;2539960;23;20190;-60
2023/10/01 03:56:31;;;;;;;7.68;3.38;;;;;21.70;101281.00;;;;2534540;23;20256;-60
2023/10/01 03:57:31;;;;;;;4.50;3.00;;;;;21.70;101280.00;;;;2525323;23;20680;-60
2023/10/01 03:58:36;;;;;;;5.90;3.50;;;;;21.70;101278.00;;;;2527671;23;20196;-60
2023/10/01 03:59:37;;;;;;;5.25;3.08;;;;;21.70;101279.00;;;;2540370;23;20213;-60
2023/10/01 04:01:58;;;;;;;4.97;2.97;;;;;21.70;101277.00;;;;2525572;23;20198;-62
2023/10/01 04:03:00;;;;;;;4.85;3.28;;;;;21.70;101273.00;;;;2541296;23;20560;-60
2023/10/01 04:04:01;;;;;;;4.95;3.53;;;;;21.70;101285.00;;;;2539801;23;21126;-60
2023/10/01 04:05:21;;;;;;;6.40;3.30;;;;;21.70;101272.00;;;;2534576;23;20210;-60
2023/10/01 04:06:21;;;;;;;3.45;2.80;;;;;21.70;101281.00;;;;2529158;23;20207;-60
2023/10/01 04:07:22;;;;;;;4.70;3.07;;;;;21.70;101273.00;;;;2514723;23;20642;-60
2023/10/01 04:08:23;;;;;;;4.43;2.73;;;;;21.70;101272.00;;;;2539767;23;20569;-60
2023/10/01 04:09:26;;;;;;;4.10;3.30;;;;;21.70;101269.00;;;;2540277;23;20506;-60
2023/10/01 04:11:49;;;;;;;5.40;3.20;;;;;21.70;101271.00;;;;2540434;23;20626;-60
2023/10/01 04:12:54;;;;;;;4.68;3.20;;;;;21.70;101277.00;;;;2537924;23;20425;-60
2023/10/01 04:14:07;;;;;;;4.47;2.85;;;;;21.70;101271.00;;;;2526929;23;20203;-60
2023/10/01 04:15:09;;;;;;;6.15;3.13;;;;;21.70;101272.00;;;;2541410;23;20247;-60
2023/10/01 04:16:14;;;;;;;5.25;3.35;;;;;21.70;101281.00;;;;2527429;23;20194;-60
2023/10/01 04:17:25;;;;;;;7.35;3.15;;;;;21.70;101268.00;;;;2516338;23;20273;-60
2023/10/01 04:18:28;;;;;;;4.90;3.03;;;;;21.70;101276.00;;;;2510315;23;20195;-60
2023/10/01 04:19:31;;;;;;;6.68;3.35;;;;;21.70;101280.00;;;;2526058;23;20187;-60
2023/10/01 04:20:33;;;;;;;4.22;2.72;;;;;21.70;101276.00;;;;2538109;23;20320;-60
2023/10/01 04:21:34;;;;;;;5.43;3.17;;;;;21.70;101269.00;;;;2538606;23;20190;-61
2023/10/01 04:22:36;;;;;;;3.63;2.90;;;;;21.70;101265.00;;;;2550536;23;20197;-60
2023/10/01 04:23:49;;;;;;;5.22;3.10;;;;;21.70;101267.00;;;;2539979;23;20437;-60
2023/10/01 04:25:10;;;;;;;6.65;3.58;;;;;21.70;101269.00;;;;2539699;23;20198;-60
2023/10/01 04:26:13;;;;;;;4.28;2.90;;;;;21.70;101267.00;;;;2539884;23;20216;-60
2023/10/01 04:27:23;;;;;;;4.20;3.10;;;;;21.70;101271.00;;;;2524337;23;20661;-61
2023/10/01 04:28:23;;;;;;;3.80;2.80;;;;;21.70;101269.00;;;;2540344;23;20273;-60
2023/10/01 04:29:44;;;;;;;4.20;3.40;;;;;21.70;101267.00;;;;2540533;23;20518;-60
2023/10/01 04:30:45;;;;;;;6.15;3.22;;;;;21.70;101270.00;;;;2543539;23;20202;-61
2023/10/01 04:31:48;;;;;;;4.80;3.00;;;;;21.70;101107.00;;;;2525177;23;20222;-60
2023/10/01 04:32:49;;;;;;;3.83;2.97;;;;;21.70;101267.00;;;;2540526;23;20607;-60
2023/10/01 04:33:50;;;;;;;5.20;3.00;;;;;21.70;101264.00;;;;2552750;23;20254;-60
2023/10/01 04:34:50;;;;;;;4.30;3.17;;;;;21.70;101270.00;;;;2527554;23;20199;-60
2023/10/01 04:35:58;;;;;;;7.50;3.57;;;;;21.70;101263.00;;;;2527910;23;20433;-60
2023/10/01 04:36:59;;;;;;;4.40;3.15;;;;;21.70;101269.00;;;;2512398;23;20207;-60
2023/10/01 04:37:59;;;;;;;5.10;2.87;;;;;21.70;101273.00;;;;2523889;23;20235;-60
2023/10/01 04:39:00;;;;;;;4.20;2.60;;;;;21.70;101271.00;;;;2552902;23;20197;-60
2023/10/01 04:40:02;;;;;;;3.90;3.05;;;;;21.70;101265.00;;;;2547375;23;20201;-60
2023/10/01 04:41:03;;;;;;;4.22;3.00;;;;;21.70;101271.00;;;;2553262;23;20774;-60
2023/10/01 04:42:04;;;;;;;3.85;3.00;;;;;21.70;101267.00;;;;2525541;23;20225;-60
2023/10/01 04:43:08;;;;;;;3.60;2.47;;;;;21.70;101264.00;;;;2538783;23;20199;-60
2023/10/01 04:44:13;;;;;;;4.00;2.92;;;;;21.70;101272.00;;;;2540449;23;20209;-60
2023/10/01 04:45:22;;;;;;;5.32;2.97;;;;;21.70;101267.00;;;;2553260;23;20216;-60
2023/10/01 04:46:29;;;;;;;4.45;3.17;;;;;21.70;101264.00;;;;2552179;23;20198;-60
2023/10/01 04:47:40;;;;;;;4.63;3.00;;;;;21.70;101264.00;;;;2525651;23;20228;-60
2023/10/01 04:48:42;;;;;;;3.50;2.88;;;;;21.70;101269.00;;;;2525250;23;20199;-60
2023/10/01 04:49:46;;;;;;;6.38;2.90;;;;;21.70;101271.00;;;;2539364;23;20287;-60
2023/10/01 04:50:47;;;;;;;4.68;3.08;;;;;21.70;101269.00;;;;2539155;23;20210;-61
2023/10/01 04:51:47;;;;;;;4.67;3.30;;;;;21.70;101273.00;;;;2526765;23;20228;-60
2023/10/01 04:52:47;;;;;;;4.40;3.33;;;;;21.70;101275.00;;;;2540893;23;20256;-60
2023/10/01 04:53:49;;;;;;;3.90;3.10;;;;;21.70;101279.00;;;;2540010;23;20656;-60
2023/10/01 04:54:49;;;;;;;4.43;2.90;;;;;21.70;101262.00;;;;2530206;23;20599;-60
2023/10/01 04:56:01;;;;;;;5.70;3.40;;;;;21.70;101272.00;;;;2520944;23;20207;-60
2023/10/01 04:57:01;;;;;;;4.25;3.05;;;;;21.70;101282.00;;;;2506535;23;20542;-60
2023/10/01 04:58:02;;;;;;;4.30;3.30;;;;;21.70;101270.00;;;;2525870;23;20231;-60
2023/10/01 04:59:02;;;;;;;3.87;3.20;;;;;21.70;101271.00;;;;2518143;23;20206;-60
2023/10/01 05:00:10;;;;;;;4.27;3.10;;;;;21.70;101275.00;;;;2528655;23;20867;-60
2023/10/01 05:01:11;;;;;;;4.22;3.10;;;;;21.70;101276.00;;;;2540781;23;20199;-60
2023/10/01 05:02:21;;;;;;;3.33;2.70;;;;;21.70;101269.00;;;;2524952;23;20221;-60
2023/10/01 05:03:40;;;;;;;4.30;3.00;;;;;21.70;101272.00;;;;2528158;23;20198;-60
2023/10/01 05:04:41;;;;;;;3.75;2.95;;;;;21.70;101274.00;;;;2533800;23;20644;-60
2023/10/01 05:05:44;;;;;;;5.05;3.38;;;;;21.70;101270.00;;;;2530765;23;20273;-59
2023/10/01 05:06:59;;;;;;;3.80;3.05;;;;;21.70;101262.00;;;;2519867;23;20194;-60
2023/10/01 05:08:00;;;;;;;4.78;2.50;;;;;21.70;101273.00;;;;2538019;23;20659;-60
2023/10/01 05:09:00;;;;;;;4.30;3.50;;;;;21.70;101276.00;;;;2540394;23;20206;-60
2023/10/01 05:10:02;;;;;;;3.80;2.80;;;;;21.70;101277.00;;;;2534851;23;20273;-60
2023/10/01 05:11:03;;;;;;;5.15;3.28;;;;;21.70;101275.00;;;;2531103;23;20203;-60
2023/10/01 05:12:03;;;;;;;3.93;3.30;;;;;21.70;101278.00;;;;2526545;23;20195;-60
2023/10/01 05:13:06;;;;;;;3.93;3.00;;;;;21.70;101281.00;;;;2540744;23;20285;-60
2023/10/01 05:14:07;;;;;;;3.30;2.80;;;;;21.70;101284.00;;;;2532135;23;20202;-60
2023/10/01 05:15:17;;;;;;;6.10;3.97;;;;;21.70;101277.00;;;;2531194;23;20211;-60
2023/10/01 05:16:38;;;;;;;4.65;3.22;;;;;21.70;101282.00;;;;2535581;23;20210;-60
2023/10/01 05:17:38;;;;;;;3.80;2.97;;;;;21.70;101286.00;;;;2536496;23;20205;-60
2023/10/01 05:18:40;;;;;;;3.90;3.20;;;;;21.70;101276.00;;;;2539098;23;20198;-60
2023/10/01 05:19:41;;;;;;;4.93;3.30;;;;;21.70;101284.00;;;;2532563;23;20202;-60
2023/10/01 05:20:41;;;;;;;5.22;3.20;;;;;21.70;101287.00;;;;2520969;23;20582;-60
2023/10/01 05:21:50;;;;;;;3.67;2.83;;;;;21.70;101283.00;;;;2522895;23;20191;-60
2023/10/01 05:22:54;;;;;;;5.95;3.65;;;;;21.70;101288.00;;;;2520841;23;20258;-60
2023/10/01 05:23:55;;;;;;;3.70;2.67;;;;;21.60;101281.00;;;;2523884;23;20194;-60